Chicago, Illinois
Current Conditions -  °F | °C
As of 2:53 AM on Wednesday 22 Oct 2014 (Local Time) from KMDW Reporting Station
Broken Clouds Broken Clouds  
Wind Chill: 46°   Ceiling: 2800
Heat Index: 49°   Visibility: 10mi
Dew Point: 39°   Wind: 7mph
Humidity: 69%   Direction: 220°SW
Pressure: 30.28"   Gusts: NA
Location:  41.88°N, 87.63°W
Report Text: KMDW 220753Z 22006KT 10SM BKN028 09/04 A3028 RMK AO2 SLP256 T00940039
Loading
Personal Weather Stations






























Interactive Weather Map
Tropical Storm Tracking
New forecast layout! Learn more

10-Day Weather Forecast

Advertisements
Track Severe Weather on mobile